createdAt,value
2016-05-30T00:00:26.013Z,46.85
2016-05-30T00:01:26.031Z,46.66
2016-05-30T00:02:26.065Z,46.75
2016-05-30T00:03:25.927Z,46.56
2016-05-30T00:04:25.961Z,46.85
2016-05-30T00:05:26.152Z,46.95
2016-05-30T00:06:26.185Z,46.95
2016-05-30T00:07:26.063Z,46.75
2016-05-30T00:08:26.237Z,47.14
2016-05-30T00:09:26.271Z,46.85
2016-05-30T00:10:26.305Z,47.14
2016-05-30T00:11:26.324Z,46.95
2016-05-30T00:12:26.357Z,47.05
2016-05-30T00:13:26.391Z,46.95
2016-05-30T00:14:26.410Z,47.05
2016-05-30T00:15:26.303Z,47.14
2016-05-30T00:16:26.478Z,46.95
2016-05-30T00:17:26.512Z,47.05
2016-05-30T00:18:26.545Z,46.95
2016-05-30T00:19:26.564Z,47.05
2016-05-30T00:20:26.598Z,47.05
2016-05-30T00:21:26.631Z,47.05
2016-05-30T00:22:26.915Z,47.05
2016-05-30T00:23:26.684Z,47.05
2016-05-30T00:24:26.702Z,47.14
2016-05-30T00:25:26.752Z,47.24
2016-05-30T00:26:26.769Z,47.24
2016-05-30T00:27:26.803Z,47.24
2016-05-30T00:28:26.839Z,47.14
2016-05-30T00:29:26.856Z,47.53
2016-05-30T00:30:26.891Z,47.24
2016-05-30T00:31:26.924Z,47.33
2016-05-30T00:32:26.958Z,47.33
2016-05-30T00:33:26.976Z,47.43
2016-05-30T00:34:27.010Z,47.33
2016-05-30T00:35:27.029Z,47.5
2016-05-30T00:36:27.438Z,47.5
2016-05-30T00:37:27.675Z,47.6
2016-05-30T00:38:27.130Z,47.41
2016-05-30T00:39:27.164Z,47.12
2016-05-30T00:40:27.183Z,47.7
2016-05-30T00:41:27.202Z,47.5
2016-05-30T00:42:27.251Z,47.5
2016-05-30T00:43:27.269Z,47.5
2016-05-30T00:44:27.303Z,47.5
2016-05-30T00:45:27.337Z,47.7
2016-05-30T00:46:27.355Z,47.7
2016-05-30T00:47:27.390Z,47.7
2016-05-30T00:48:27.267Z,47.7
2016-05-30T00:49:27.442Z,47.89
2016-05-30T00:50:27.476Z,47.99
2016-05-30T00:51:27.509Z,47.6
2016-05-30T00:52:28.637Z,47.8
2016-05-30T00:53:27.561Z,47.8
2016-05-30T00:54:27.595Z,47.89
2016-05-30T00:55:27.629Z,47.89
2016-05-30T00:56:27.648Z,47.99
2016-05-30T00:57:27.681Z,47.99
2016-05-30T00:58:27.716Z,48.08
2016-05-30T00:59:27.750Z,48.18
2016-05-30T01:00:27.767Z,48.18
2016-05-30T01:01:27.802Z,48.28
2016-05-30T01:02:27.663Z,48.47
2016-05-30T01:03:27.854Z,48.57
2016-05-30T01:04:27.888Z,48.37
2016-05-30T01:05:27.906Z,48.44
2016-05-30T01:06:27.940Z,48.35
2016-05-30T01:07:28.146Z,48.74
2016-05-30T01:08:27.993Z,48.25
2016-05-30T01:09:28.026Z,48.35
2016-05-30T01:10:28.060Z,48.35
2016-05-30T01:11:28.093Z,48.54
2016-05-30T01:12:28.112Z,48.44
2016-05-30T01:13:28.146Z,48.44
2016-05-30T01:14:28.180Z,48.25
2016-05-30T01:15:28.198Z,48.16
2016-05-30T01:16:28.233Z,48.93
2016-05-30T01:17:28.267Z,48.93
2016-05-30T01:18:28.285Z,48.25
2016-05-30T01:19:28.162Z,48.83
2016-05-30T01:20:28.353Z,48.83
2016-05-30T01:21:28.387Z,48.83
2016-05-30T01:22:28.406Z,48.74
2016-05-30T01:23:28.439Z,48.16
2016-05-30T01:24:28.457Z,48.16
2016-05-30T01:25:28.492Z,48.64
2016-05-30T01:26:28.370Z,48.64
2016-05-30T01:27:28.544Z,48.35
2016-05-30T01:28:28.578Z,48.64
2016-05-30T01:29:28.611Z,48.64
2016-05-30T01:30:28.645Z,48.35
2016-05-30T01:31:28.664Z,48.44
2016-05-30T01:32:28.697Z,48.64
2016-05-30T01:33:28.575Z,48.64
2016-05-30T01:34:28.749Z,48.74
2016-05-30T01:35:28.784Z,48.74
2016-05-30T01:36:29.021Z,48.54
2016-05-30T01:37:29.430Z,48.44
2016-05-30T01:38:28.869Z,48.93
2016-05-30T01:39:28.888Z,48.83
2016-05-30T01:40:28.922Z,48.74
2016-05-30T01:41:28.957Z,49.02
2016-05-30T01:42:28.974Z,48.81
2016-05-30T01:43:29.008Z,48.74
2016-05-30T01:44:29.043Z,48.9
2016-05-30T01:45:29.076Z,48.81
2016-05-30T01:46:29.095Z,48.81
2016-05-30T01:47:29.128Z,48.9
2016-05-30T01:48:29.146Z,49.58
2016-05-30T01:49:29.181Z,49
2016-05-30T01:50:29.199Z,48.83
2016-05-30T01:51:29.326Z,48.81
2016-05-30T01:52:29.267Z,49.39
2016-05-30T01:53:29.301Z,48.9
2016-05-30T01:54:29.334Z,49.1
2016-05-30T01:55:29.353Z,49.19
2016-05-30T01:56:29.386Z,49.19
2016-05-30T01:57:29.405Z,49.19
2016-05-30T01:58:29.439Z,49.1
2016-05-30T01:59:29.473Z,49.29
2016-05-30T02:00:29.491Z,49.68
2016-05-30T02:01:29.526Z,49.58
2016-05-30T02:02:29.559Z,49.58
2016-05-30T02:03:29.577Z,49.58
2016-05-30T02:04:29.611Z,49.77
2016-05-30T02:05:29.630Z,49.58
2016-05-30T02:06:29.680Z,49.58
2016-05-30T02:07:29.558Z,49.58
2016-05-30T02:08:29.733Z,49.58
2016-05-30T02:09:29.749Z,49.68
2016-05-30T02:10:29.785Z,49.58
2016-05-30T02:11:29.818Z,49.39
2016-05-30T02:12:29.836Z,49.58
2016-05-30T02:13:29.886Z,49.39
2016-05-30T02:14:30.091Z,50.26
2016-05-30T02:15:29.923Z,49.77
2016-05-30T02:16:29.957Z,49.58
2016-05-30T02:17:29.975Z,50.35
2016-05-30T02:18:30.009Z,49.68
2016-05-30T02:19:30.043Z,49.58
2016-05-30T02:20:30.062Z,49.68
2016-05-30T02:21:29.939Z,49.77
2016-05-30T02:22:30.332Z,49.87
2016-05-30T02:23:30.147Z,49.68
2016-05-30T02:24:30.181Z,49.68
2016-05-30T02:25:30.200Z,49.58
2016-05-30T02:26:30.234Z,49.87
2016-05-30T02:27:30.267Z,49.75
2016-05-30T02:28:30.129Z,49.84
2016-05-30T02:29:30.320Z,50.04
2016-05-30T02:30:30.338Z,49.94
2016-05-30T02:31:30.216Z,50.71
2016-05-30T02:32:30.405Z,50.04
2016-05-30T02:33:30.440Z,50.71
2016-05-30T02:34:30.458Z,50.13
2016-05-30T02:35:30.492Z,50.04
2016-05-30T02:36:30.510Z,50.04
2016-05-30T02:37:31.997Z,50.13
2016-05-30T02:38:30.578Z,50.13
2016-05-30T02:39:30.609Z,50.23
2016-05-30T02:40:30.670Z,50.52
2016-05-30T02:41:30.730Z,50.32
2016-05-30T02:42:30.792Z,50.32
2016-05-30T02:43:30.837Z,50.23
2016-05-30T02:44:30.874Z,50.42
2016-05-30T02:45:30.918Z,51
2016-05-30T02:46:30.961Z,50.42
2016-05-30T02:47:31.005Z,50.9
2016-05-30T02:48:31.032Z,50.32
2016-05-30T02:49:31.074Z,50.13
2016-05-30T02:50:31.110Z,50.13
2016-05-30T02:51:31.492Z,50.23
2016-05-30T02:52:31.170Z,50.32
2016-05-30T02:53:31.191Z,50.32
2016-05-30T02:54:31.071Z,51.1
2016-05-30T02:55:31.247Z,50.52
2016-05-30T02:56:31.126Z,51
2016-05-30T02:57:31.318Z,50.42
2016-05-30T02:58:31.353Z,50.52
2016-05-30T02:59:31.372Z,50.62
2016-05-30T03:00:31.407Z,51
2016-05-30T03:01:31.426Z,50.62
2016-05-30T03:02:31.460Z,50.71
2016-05-30T03:03:31.495Z,50.71
2016-05-30T03:04:31.514Z,50.71
2016-05-30T03:05:31.548Z,50.81
2016-05-30T03:06:31.566Z,50.71
2016-05-30T03:07:32.522Z,50.71
2016-05-30T03:08:31.617Z,50.9
2016-05-30T03:09:31.653Z,50.9
2016-05-30T03:10:31.687Z,50.81
2016-05-30T03:11:31.564Z,50.9
2016-05-30T03:12:31.598Z,51
2016-05-30T03:13:31.772Z,50.71
2016-05-30T03:14:31.791Z,51.1
2016-05-30T03:15:31.825Z,51.17
2016-05-30T03:16:31.859Z,51.29
2016-05-30T03:17:31.892Z,51.07
2016-05-30T03:18:31.739Z,51.36
2016-05-30T03:19:31.929Z,50.88
2016-05-30T03:20:31.963Z,51.26
2016-05-30T03:21:32.435Z,51.07
2016-05-30T03:22:32.030Z,51.17
2016-05-30T03:23:32.049Z,51.07
2016-05-30T03:24:31.911Z,51.26
2016-05-30T03:25:32.117Z,51.26
2016-05-30T03:26:32.119Z,50.98
2016-05-30T03:27:32.153Z,51.48
2016-05-30T03:28:32.204Z,51.17
2016-05-30T03:29:32.221Z,51.26
2016-05-30T03:30:32.240Z,51.07
2016-05-30T03:31:32.257Z,50.88
2016-05-30T03:32:32.292Z,50.98
2016-05-30T03:33:32.326Z,51.07
2016-05-30T03:34:32.344Z,51.46
2016-05-30T03:35:32.378Z,51.56
2016-05-30T03:36:33.146Z,51.46
2016-05-30T03:37:32.321Z,51.46
2016-05-30T03:38:32.309Z,51.07
2016-05-30T03:39:32.499Z,51.07
2016-05-30T03:40:32.516Z,51.07
2016-05-30T03:41:32.410Z,51.36
2016-05-30T03:42:32.585Z,51.36
2016-05-30T03:43:32.603Z,51.17
2016-05-30T03:44:32.637Z,51.07
2016-05-30T03:45:32.656Z,51.26
2016-05-30T03:46:32.689Z,51.36
2016-05-30T03:47:32.708Z,51.07
2016-05-30T03:48:32.741Z,51.26
2016-05-30T03:49:32.822Z,51.26
2016-05-30T03:50:32.794Z,51.26
2016-05-30T03:51:32.828Z,51.65
2016-05-30T03:52:32.877Z,51.65
2016-05-30T03:53:32.880Z,51.46
2016-05-30T03:54:32.913Z,51.75
2016-05-30T03:55:32.932Z,51.56
2016-05-30T03:56:32.966Z,51.46
2016-05-30T03:57:33.000Z,51.56
2016-05-30T03:58:33.018Z,51.46
2016-05-30T03:59:32.896Z,51.46
2016-05-30T04:00:33.071Z,51.56
2016-05-30T04:01:33.104Z,51.46
2016-05-30T04:02:33.185Z,51.56
2016-05-30T04:03:33.156Z,51.56
2016-05-30T04:04:33.191Z,51.65
2016-05-30T04:05:33.209Z,51.46
2016-05-30T04:06:33.727Z,51.46
2016-05-30T04:07:33.620Z,51.36
2016-05-30T04:08:33.311Z,51.36
2016-05-30T04:09:33.329Z,51.36
2016-05-30T04:10:33.363Z,51.56
2016-05-30T04:11:33.382Z,51.56
2016-05-30T04:12:33.400Z,51.26
2016-05-30T04:13:33.433Z,51.46
2016-05-30T04:14:33.468Z,51.46
2016-05-30T04:15:33.486Z,51.84
2016-05-30T04:16:33.520Z,52.04
2016-05-30T04:17:33.554Z,52.13
2016-05-30T04:18:33.572Z,52.04
2016-05-30T04:19:33.622Z,51.94
2016-05-30T04:20:33.625Z,51.84
2016-05-30T04:21:33.939Z,51.84
2016-05-30T04:22:34.474Z,51.75
2016-05-30T04:23:33.727Z,51.36
2016-05-30T04:24:33.744Z,51.75
2016-05-30T04:25:33.763Z,51.75
2016-05-30T04:26:33.796Z,51.75
2016-05-30T04:27:33.830Z,52.04
2016-05-30T04:28:33.693Z,51.94
2016-05-30T04:29:33.882Z,52.04
2016-05-30T04:30:33.901Z,52.04
2016-05-30T04:31:33.935Z,52.04
2016-05-30T04:32:33.969Z,51.94
2016-05-30T04:33:33.987Z,51.75
2016-05-30T04:34:33.865Z,51.75
2016-05-30T04:35:34.054Z,51.65
2016-05-30T04:36:34.370Z,52.04
2016-05-30T04:37:34.108Z,52.04
2016-05-30T04:38:34.126Z,51.75
2016-05-30T04:39:34.159Z,51.94
2016-05-30T04:40:34.178Z,52.04
2016-05-30T04:41:34.212Z,52.04
2016-05-30T04:42:34.073Z,52.13
2016-05-30T04:43:34.109Z,51.75
2016-05-30T04:44:34.298Z,51.84
2016-05-30T04:45:34.331Z,51.75
2016-05-30T04:46:34.351Z,51.75
2016-05-30T04:47:34.369Z,52.04
2016-05-30T04:48:34.403Z,51.94
2016-05-30T04:49:34.437Z,52.04
2016-05-30T04:50:34.455Z,52.13
2016-05-30T04:51:34.723Z,52.13
2016-05-30T04:52:35.273Z,52.13
2016-05-30T04:53:34.619Z,52.13
2016-05-30T04:54:34.591Z,52.23
2016-05-30T04:55:34.594Z,52.13
2016-05-30T04:56:34.627Z,52.23
2016-05-30T04:57:34.661Z,52.45
2016-05-30T04:58:34.680Z,52.35
2016-05-30T04:59:34.635Z,52.35
2016-05-30T05:00:34.826Z,52.35
2016-05-30T05:01:34.860Z,52.73
2016-05-30T05:02:34.784Z,52.64
2016-05-30T05:03:34.818Z,52.64
2016-05-30T05:04:34.837Z,52.64
2016-05-30T05:05:34.885Z,52.55
2016-05-30T05:06:34.920Z,52.55
2016-05-30T05:07:34.985Z,52.55
2016-05-30T05:08:34.956Z,52.83
2016-05-30T05:09:34.975Z,52.55
2016-05-30T05:10:35.009Z,52.64
2016-05-30T05:11:35.026Z,52.55
2016-05-30T05:12:35.061Z,52.73
2016-05-30T05:13:35.095Z,52.64
2016-05-30T05:14:35.128Z,52.55
2016-05-30T05:15:35.162Z,52.64
2016-05-30T05:16:35.181Z,52.55
2016-05-30T05:17:35.059Z,52.64
2016-05-30T05:18:35.077Z,52.64
2016-05-30T05:19:35.267Z,52.55
2016-05-30T05:20:35.286Z,52.28
2016-05-30T05:21:35.320Z,52.45
2016-05-30T05:22:35.323Z,52.35
2016-05-30T05:23:35.372Z,52.45
2016-05-30T05:24:35.250Z,52.28
2016-05-30T05:25:35.424Z,52.28
2016-05-30T05:26:35.458Z,52.19
2016-05-30T05:27:35.492Z,52.67
2016-05-30T05:28:35.511Z,52.28
2016-05-30T05:29:35.544Z,52.37
2016-05-30T05:30:35.562Z,52.47
2016-05-30T05:31:35.597Z,52.37
2016-05-30T05:32:35.615Z,52.37
2016-05-30T05:33:35.649Z,52.76
2016-05-30T05:34:35.682Z,52.95
2016-05-30T05:35:35.701Z,52.76
2016-05-30T05:36:35.579Z,52.95
2016-05-30T05:37:35.596Z,52.47
2016-05-30T05:38:35.787Z,52.67
2016-05-30T05:39:35.821Z,52.86
2016-05-30T05:40:35.839Z,52.86
2016-05-30T05:41:35.874Z,52.95
2016-05-30T05:42:35.892Z,52.76
2016-05-30T05:43:35.926Z,52.95
2016-05-30T05:44:35.959Z,52.76
2016-05-30T05:45:35.978Z,52.57
2016-05-30T05:46:36.011Z,52.57
2016-05-30T05:47:36.046Z,52.86
2016-05-30T05:48:36.064Z,52.57
2016-05-30T05:49:36.098Z,52.67
2016-05-30T05:50:36.132Z,52.86
2016-05-30T05:51:36.291Z,52.67
2016-05-30T05:52:37.183Z,52.28
2016-05-30T05:53:36.202Z,52.47
2016-05-30T05:54:36.237Z,52.37
2016-05-30T05:55:36.255Z,52.37
2016-05-30T05:56:36.289Z,52.5
2016-05-30T05:57:36.307Z,52.31
2016-05-30T05:58:36.341Z,52.31
2016-05-30T05:59:36.375Z,52.21
2016-05-30T06:00:36.409Z,51.92
2016-05-30T06:01:36.427Z,51.82
2016-05-30T06:02:36.461Z,51.92
2016-05-30T06:03:36.496Z,52.11
2016-05-30T06:04:36.529Z,52.21
2016-05-30T06:05:36.547Z,52.01
2016-05-30T06:06:36.425Z,52.11
2016-05-30T06:07:36.912Z,51.44
2016-05-30T06:08:36.634Z,51.44
2016-05-30T06:09:36.652Z,51.63
2016-05-30T06:10:36.685Z,51.44
2016-05-30T06:11:36.548Z,51.82
2016-05-30T06:12:36.738Z,51.73
2016-05-30T06:13:36.772Z,51.82
2016-05-30T06:14:36.790Z,51.92
2016-05-30T06:15:36.824Z,52.01
2016-05-30T06:16:36.858Z,52.23
2016-05-30T06:17:36.876Z,51.95
2016-05-30T06:18:36.911Z,51.82
2016-05-30T06:19:36.928Z,51.37
2016-05-30T06:20:36.962Z,51.46
2016-05-30T06:21:37.137Z,51.56
2016-05-30T06:22:37.155Z,51.56
2016-05-30T06:23:37.049Z,51.65
2016-05-30T06:24:37.083Z,51.37
2016-05-30T06:25:37.100Z,51.37
2016-05-30T06:26:37.135Z,50.98
2016-05-30T06:27:37.169Z,51.37
2016-05-30T06:28:37.202Z,51.07
2016-05-30T06:29:37.221Z,50.98
2016-05-30T06:30:37.989Z,50.98
2016-05-30T06:31:37.273Z,50.69
2016-05-30T06:32:37.307Z,50.81
2016-05-30T06:33:37.326Z,50.98
2016-05-30T06:34:37.360Z,50.33
2016-05-30T06:35:39.269Z,50.52
2016-05-30T06:36:37.505Z,50.43
2016-05-30T06:37:37.305Z,50.62
2016-05-30T06:38:37.479Z,51.01
2016-05-30T06:39:37.498Z,49.95
2016-05-30T06:40:40.860Z,50.04
2016-05-30T06:41:37.409Z,49.85
2016-05-30T06:42:37.585Z,49.95
2016-05-30T06:43:37.618Z,49.85
2016-05-30T06:44:37.652Z,49.75
2016-05-30T06:45:39.404Z,49.55
2016-05-30T06:46:37.704Z,49.65
2016-05-30T06:47:37.739Z,49.65
2016-05-30T06:48:37.756Z,49.75
2016-05-30T06:49:37.791Z,49.77
2016-05-30T06:50:37.825Z,49.97
2016-05-30T06:51:37.702Z,49.39
2016-05-30T06:52:37.878Z,49.1
2016-05-30T06:53:37.895Z,49.1
2016-05-30T06:54:37.928Z,49
2016-05-30T06:55:38.026Z,48.9
2016-05-30T06:56:37.997Z,48.71
2016-05-30T06:57:38.062Z,48.81
2016-05-30T06:58:38.050Z,48.52
2016-05-30T06:59:38.067Z,48.71
2016-05-30T07:00:41.320Z,48.71
2016-05-30T07:01:38.135Z,48.13
2016-05-30T07:02:37.997Z,48.9
2016-05-30T07:03:38.203Z,48.71
2016-05-30T07:04:38.222Z,48.23
2016-05-30T07:05:38.100Z,48.23
2016-05-30T07:06:38.133Z,48.25
2016-05-30T07:07:38.308Z,48.42
2016-05-30T07:08:38.326Z,48.44
2016-05-30T07:09:38.360Z,48.35
2016-05-30T07:10:38.237Z,48.93
2016-05-30T07:11:38.413Z,48.64
2016-05-30T07:12:38.446Z,48.64
2016-05-30T07:13:38.479Z,48.74
2016-05-30T07:14:38.515Z,48.83
2016-05-30T07:15:40.735Z,48.44
2016-05-30T07:16:38.582Z,48.44
2016-05-30T07:17:38.601Z,48.35
2016-05-30T07:18:38.619Z,48.64
2016-05-30T07:19:38.653Z,48.74
2016-05-30T07:20:40.546Z,48.47
2016-05-30T07:21:38.720Z,48.47
2016-05-30T07:22:38.754Z,48.57
2016-05-30T07:23:38.773Z,48.86
2016-05-30T07:24:38.791Z,48.57
2016-05-30T07:25:40.622Z,48.37
2016-05-30T07:26:38.859Z,48.08
2016-05-30T07:27:38.878Z,47.62
2016-05-30T07:28:38.927Z,47.81
2016-05-30T07:29:38.945Z,48.2
2016-05-30T07:30:41.042Z,47.72
2016-05-30T07:31:39.028Z,48.11
2016-05-30T07:32:39.031Z,47.52
2016-05-30T07:33:39.065Z,47.62
2016-05-30T07:34:39.083Z,47.43
2016-05-30T07:35:39.305Z,47.43
2016-05-30T07:36:39.011Z,47.14
2016-05-30T07:37:39.373Z,47.16
2016-05-30T07:38:39.204Z,46.94
2016-05-30T07:39:39.237Z,46.58
2016-05-30T07:40:39.272Z,46.67
2016-05-30T07:41:39.290Z,46.39
2016-05-30T07:42:39.324Z,46.19
2016-05-30T07:43:39.357Z,46.29
2016-05-30T07:44:39.377Z,46.29
2016-05-30T07:45:39.254Z,46.39
2016-05-30T07:46:39.443Z,46.39
2016-05-30T07:47:39.321Z,46.29
2016-05-30T07:48:39.496Z,46.12
2016-05-30T07:49:39.531Z,45.81
2016-05-30T07:50:39.579Z,45.71
2016-05-30T07:51:39.598Z,45.83
2016-05-30T07:52:39.616Z,45.83
2016-05-30T07:53:39.650Z,45.73
2016-05-30T07:54:39.684Z,45.64
2016-05-30T07:55:43.156Z,45.64
2016-05-30T07:56:39.737Z,45.64
2016-05-30T07:57:39.770Z,45.44
2016-05-30T07:58:39.789Z,45.27
2016-05-30T07:59:39.822Z,44.98
2016-05-30T08:00:39.856Z,44.78
2016-05-30T08:01:39.891Z,44.68
2016-05-30T08:02:39.909Z,44.49
2016-05-30T08:03:39.958Z,44.4
2016-05-30T08:04:39.821Z,43.82
2016-05-30T08:05:43.011Z,44.03
2016-05-30T08:06:40.216Z,44.03
2016-05-30T08:07:39.922Z,43.74
2016-05-30T08:08:40.097Z,43.54
2016-05-30T08:09:40.116Z,43.54
2016-05-30T08:10:40.149Z,43.84
2016-05-30T08:11:40.183Z,43.64
2016-05-30T08:12:40.295Z,43.57
2016-05-30T08:13:40.235Z,43.18
2016-05-30T08:14:40.269Z,43.18
2016-05-30T08:15:40.304Z,43.08
2016-05-30T08:16:40.338Z,43.37
2016-05-30T08:17:40.356Z,42.89
2016-05-30T08:18:40.390Z,42.79
2016-05-30T08:19:40.423Z,42.79
2016-05-30T08:20:40.457Z,42.5
2016-05-30T08:21:40.960Z,42.69
2016-05-30T08:22:40.791Z,42.71
2016-05-30T08:23:40.544Z,42.81
2016-05-30T08:24:40.624Z,42.52
2016-05-30T08:25:40.611Z,42.33
2016-05-30T08:26:40.630Z,42.03
2016-05-30T08:27:40.664Z,41.86
2016-05-30T08:28:40.698Z,41.67
2016-05-30T08:29:40.731Z,41.57
2016-05-30T08:30:40.750Z,41.47
2016-05-30T08:31:40.783Z,40.79
2016-05-30T08:32:40.989Z,40.52
2016-05-30T08:33:40.852Z,40.13
2016-05-30T08:34:40.886Z,40.15
2016-05-30T08:35:40.919Z,39.86
2016-05-30T08:36:40.953Z,39.47
2016-05-30T08:37:40.972Z,39.57
2016-05-30T08:38:41.005Z,39.18
2016-05-30T08:39:41.024Z,38.7
2016-05-30T08:40:41.058Z,38.7
2016-05-30T08:41:40.936Z,38.6
2016-05-30T08:42:41.236Z,38.71
2016-05-30T08:43:41.253Z,38.52
2016-05-30T08:44:41.179Z,38.52
2016-05-30T08:45:41.227Z,38.03
2016-05-30T08:46:41.090Z,38.32
2016-05-30T08:47:41.123Z,38.32
2016-05-30T08:48:41.157Z,38.13
2016-05-30T08:49:41.332Z,38.23
2016-05-30T08:50:41.382Z,38.23
2016-05-30T08:51:42.229Z,37.93
2016-05-30T08:52:41.700Z,38.13
2016-05-30T08:53:41.467Z,37.66
2016-05-30T08:54:41.548Z,36.88
2016-05-30T08:55:41.536Z,37.08
2016-05-30T08:56:41.554Z,37.37
2016-05-30T08:57:41.589Z,36.98
2016-05-30T08:58:41.623Z,36.98
2016-05-30T08:59:41.656Z,36.98
2016-05-30T09:00:41.689Z,36.69
2016-05-30T09:01:41.724Z,36.49
2016-05-30T09:02:41.742Z,36.69
2016-05-30T09:03:41.776Z,36.98
2016-05-30T09:04:41.811Z,36.69
2016-05-30T09:05:41.844Z,36.49
2016-05-30T09:06:41.878Z,36.3
2016-05-30T09:07:41.911Z,35.91
2016-05-30T09:08:41.947Z,36.2
2016-05-30T09:09:41.980Z,36.3
2016-05-30T09:10:41.998Z,36.2
2016-05-30T09:11:42.032Z,36.1
2016-05-30T09:12:41.910Z,36
2016-05-30T09:13:42.116Z,36.3
2016-05-30T09:14:42.134Z,36
2016-05-30T09:15:42.168Z,35.91
2016-05-30T09:16:42.185Z,36
2016-05-30T09:17:42.220Z,35.91
2016-05-30T09:18:42.254Z,36
2016-05-30T09:19:42.226Z,35.91
2016-05-30T09:20:42.338Z,35.91
2016-05-30T09:21:42.449Z,35.91
2016-05-30T09:22:42.562Z,35.91
2016-05-30T09:23:42.408Z,36.18
2016-05-30T09:24:42.442Z,36.47
2016-05-30T09:25:42.476Z,36.08
2016-05-30T09:26:42.526Z,35.89
2016-05-30T09:27:42.544Z,35.89
2016-05-30T09:28:42.577Z,35.99
2016-05-30T09:29:42.612Z,35.89
2016-05-30T09:30:42.630Z,35.89
2016-05-30T09:31:42.664Z,35.99
2016-05-30T09:32:42.698Z,35.99
2016-05-30T09:33:42.732Z,35.5
2016-05-30T09:34:42.766Z,35.6
2016-05-30T09:35:42.659Z,35.7
2016-05-30T09:36:42.989Z,35.7
2016-05-30T09:37:42.728Z,35.6
2016-05-30T09:38:42.886Z,35.7
2016-05-30T09:39:42.919Z,35.31
2016-05-30T09:40:42.954Z,35.21
2016-05-30T09:41:43.175Z,34.82
2016-05-30T09:42:43.084Z,35.02
2016-05-30T09:43:43.228Z,35.31
2016-05-30T09:44:43.246Z,35.21
2016-05-30T09:45:43.123Z,35.31
2016-05-30T09:46:42.986Z,34.82
2016-05-30T09:47:43.019Z,35.02
2016-05-30T09:48:43.225Z,34.43
2016-05-30T09:49:43.244Z,34.55
2016-05-30T09:50:43.121Z,34.74
2016-05-30T09:51:43.171Z,34.74
2016-05-30T09:52:43.236Z,34.64
2016-05-30T09:53:43.379Z,34.45
2016-05-30T09:54:43.412Z,33.86
2016-05-30T09:55:43.447Z,34.16
2016-05-30T09:56:43.481Z,34.55
2016-05-30T09:57:43.531Z,34.14
2016-05-30T09:58:43.392Z,34.55
2016-05-30T09:59:43.645Z,34.82
2016-05-30T10:00:43.617Z,34.64
2016-05-30T10:01:43.636Z,34.55
2016-05-30T10:02:43.669Z,34.63
2016-05-30T10:03:43.703Z,34.63
2016-05-30T10:04:43.737Z,34.63
2016-05-30T10:05:43.772Z,34.63
2016-05-30T10:06:44.008Z,34.53
2016-05-30T10:07:43.823Z,34.64
2016-05-30T10:08:43.858Z,34.63
2016-05-30T10:09:43.892Z,34.25
2016-05-30T10:10:43.925Z,34.14
2016-05-30T10:11:43.959Z,34.14
2016-05-30T10:12:43.994Z,34.24
2016-05-30T10:13:44.027Z,34.14
2016-05-30T10:14:44.061Z,34.06
2016-05-30T10:15:44.095Z,34.06
2016-05-30T10:16:44.113Z,34.35
2016-05-30T10:17:44.147Z,34.45
2016-05-30T10:18:44.196Z,33.86
2016-05-30T10:19:44.215Z,34.16
2016-05-30T10:20:44.249Z,34.06
2016-05-30T10:21:44.501Z,33.77
2016-05-30T10:22:44.317Z,33.86
2016-05-30T10:23:44.351Z,33.96
2016-05-30T10:24:44.385Z,33.96
2016-05-30T10:25:44.528Z,34.06
2016-05-30T10:26:44.468Z,33.96
2016-05-30T10:27:44.487Z,33.77
2016-05-30T10:28:44.504Z,33.58
2016-05-30T10:29:44.539Z,33.58
2016-05-30T10:30:44.573Z,33.78
2016-05-30T10:31:44.544Z,33.39
2016-05-30T10:32:44.500Z,33.39
2016-05-30T10:33:44.675Z,33.39
2016-05-30T10:34:44.724Z,33.2
2016-05-30T10:35:44.742Z,32.81
2016-05-30T10:36:44.776Z,32.81
2016-05-30T10:37:45.154Z,32.52
2016-05-30T10:38:44.672Z,32.13
2016-05-30T10:39:44.863Z,32.42
2016-05-30T10:40:44.896Z,32.32
2016-05-30T10:41:44.931Z,32.52
2016-05-30T10:42:44.964Z,32.42
2016-05-30T10:43:45.014Z,32.03
2016-05-30T10:44:45.033Z,32.62
2016-05-30T10:45:45.066Z,32.42
2016-05-30T10:46:44.943Z,32.52
2016-05-30T10:47:45.135Z,32.43
2016-05-30T10:48:45.293Z,32.05
2016-05-30T10:49:45.139Z,32.15
2016-05-30T10:50:45.329Z,32.24
2016-05-30T10:51:45.380Z,32.34
2016-05-30T10:52:45.335Z,31.56
2016-05-30T10:53:45.354Z,31.66
2016-05-30T10:54:45.450Z,31.66
2016-05-30T10:55:45.452Z,31.76
2016-05-30T10:56:45.502Z,31.66
2016-05-30T10:57:45.365Z,31.66
2016-05-30T10:58:45.382Z,31.66
2016-05-30T10:59:45.526Z,31.77
2016-05-30T11:00:45.419Z,31.76
2016-05-30T11:01:45.593Z,31.66
2016-05-30T11:02:45.628Z,31.48
2016-05-30T11:03:45.661Z,31.67
2016-05-30T11:04:45.695Z,31.66
2016-05-30T11:05:45.729Z,31.66
2016-05-30T11:06:45.935Z,31.67
2016-05-30T11:07:45.984Z,31.28
2016-05-30T11:08:45.878Z,31.57
2016-05-30T11:09:46.068Z,31.19
2016-05-30T11:10:46.071Z,30.8
2016-05-30T11:11:46.074Z,31.1
2016-05-30T11:12:46.092Z,30.42
2016-05-30T11:13:46.125Z,30.62
2016-05-30T11:14:46.144Z,30.52
2016-05-30T11:15:46.147Z,30.83
2016-05-30T11:16:46.149Z,30.44
2016-05-30T11:17:46.058Z,30.54
2016-05-30T11:18:46.233Z,30.15
2016-05-30T11:19:46.283Z,29.96
2016-05-30T11:20:46.285Z,29.67
2016-05-30T11:21:46.257Z,30.06
2016-05-30T11:22:46.135Z,29.96
2016-05-30T11:23:46.169Z,30.16
2016-05-30T11:24:46.343Z,29.86
2016-05-30T11:25:46.393Z,29.77
2016-05-30T11:26:46.426Z,29.57
2016-05-30T11:27:46.460Z,29.3
2016-05-30T11:28:46.494Z,29.39
2016-05-30T11:29:46.529Z,29.39
2016-05-30T11:30:46.562Z,29.39
2016-05-30T11:31:46.596Z,29.21
2016-05-30T11:32:46.630Z,29.02
2016-05-30T11:33:46.664Z,29.02
2016-05-30T11:34:46.682Z,29.02
2016-05-30T11:35:46.576Z,28.83
2016-05-30T11:36:46.609Z,28.72
2016-05-30T11:37:46.800Z,29.13
2016-05-30T11:38:46.833Z,28.74
2016-05-30T11:39:46.712Z,28.44
2016-05-30T11:40:46.902Z,28.06
2016-05-30T11:41:46.935Z,27.67
2016-05-30T11:42:46.969Z,28.16
2016-05-30T11:43:47.003Z,27.77
2016-05-30T11:44:47.038Z,27.77
2016-05-30T11:45:47.086Z,27.38
2016-05-30T11:46:46.985Z,27.48
2016-05-30T11:47:47.039Z,27.49
2016-05-30T11:48:47.250Z,27.69
2016-05-30T11:49:47.303Z,27.29
2016-05-30T11:50:47.348Z,27.69
2016-05-30T11:51:47.389Z,27.59
2016-05-30T11:52:47.634Z,27.59
2016-05-30T11:53:47.472Z,27.59
2016-05-30T11:54:47.529Z,27.4
2016-05-30T11:55:47.550Z,27.31
2016-05-30T11:56:47.587Z,27.31
2016-05-30T11:57:47.624Z,26.92
2016-05-30T11:58:47.660Z,26.62
2016-05-30T11:59:47.697Z,26.83
2016-05-30T12:00:47.733Z,26.54
2016-05-30T12:01:47.612Z,26.54
2016-05-30T12:02:47.850Z,26.34
2016-05-30T12:03:47.854Z,26.05
2016-05-30T12:04:47.873Z,25.27
2016-05-30T12:05:47.923Z,25.48
2016-05-30T12:06:48.833Z,25.28
2016-05-30T12:07:47.992Z,25.09
2016-05-30T12:08:48.042Z,24.69
2016-05-30T12:09:48.060Z,24.4
2016-05-30T12:10:48.095Z,24.41
2016-05-30T12:11:48.129Z,24.21
2016-05-30T12:12:48.162Z,24.21
2016-05-30T12:13:48.212Z,24.11
2016-05-30T12:14:48.230Z,24.11
2016-05-30T12:15:48.264Z,24.32
2016-05-30T12:16:48.298Z,24.62
2016-05-30T12:17:48.332Z,24.03
2016-05-30T12:18:48.367Z,23.63
2016-05-30T12:19:48.400Z,23.65
2016-05-30T12:20:48.434Z,22.86
2016-05-30T12:21:48.468Z,22.77
2016-05-30T12:22:48.564Z,22.47
2016-05-30T12:23:48.552Z,22.56
2016-05-30T12:24:48.586Z,22.37
2016-05-30T12:25:48.619Z,22.37
2016-05-30T12:26:48.653Z,22.19
2016-05-30T12:27:48.688Z,21.5
2016-05-30T12:28:48.736Z,21.59
2016-05-30T12:29:48.755Z,21.11
2016-05-30T12:30:48.789Z,21.22
2016-05-30T12:31:48.839Z,21.22
2016-05-30T12:32:48.872Z,21.31
2016-05-30T12:33:48.907Z,21.31
2016-05-30T12:34:48.940Z,21.61
2016-05-30T12:35:48.818Z,21.61
2016-05-30T12:36:49.008Z,22
2016-05-30T12:37:49.558Z,22.1
2016-05-30T12:38:49.076Z,21.9
2016-05-30T12:39:49.126Z,22.49
2016-05-30T12:40:49.144Z,22.49
2016-05-30T12:41:49.193Z,22.49
2016-05-30T12:42:49.228Z,22.3
2016-05-30T12:43:49.262Z,22.59
2016-05-30T12:44:49.312Z,22.59
2016-05-30T12:45:49.329Z,22.2
2016-05-30T12:46:49.207Z,21.91
2016-05-30T12:47:49.412Z,21.72
2016-05-30T12:48:49.448Z,21.03
2016-05-30T12:49:49.481Z,21.22
2016-05-30T12:50:49.515Z,21.33
2016-05-30T12:51:49.736Z,21.12
2016-05-30T12:52:50.208Z,21.41
2016-05-30T12:53:49.617Z,21.7
2016-05-30T12:54:49.650Z,21.61
2016-05-30T12:55:49.684Z,21.8